Time;durP1;ratioP1;P1;durP2;ratioP2;P2;SDS_P1;SDS_P2;PMS_P1;PMS_P2;Temp;Humidity;BMP_temperature;BMP_pressure;BME280_temperature;BME280_humidity;BME280_pressure;Samples;Min_cycle;Max_cycle;Signal;HPM_P1;HPM_P2
2022/03/19 00:00:28;;;;;;;28.80;4.70;;;;;;;;;;6189851;23;20094;-92
2022/03/19 00:02:54;;;;;;;22.08;4.75;;;;;;;;;;6189670;23;20019;-92
2022/03/19 00:05:21;;;;;;;27.35;4.57;;;;;;;;;;6189527;23;20035;-92
2022/03/19 00:07:48;;;;;;;26.10;4.60;;;;;;;;;;6189084;23;20015;-91
2022/03/19 00:10:15;;;;;;;21.27;5.00;;;;;;;;;;6166461;23;20031;-91
2022/03/19 00:12:41;;;;;;;18.40;4.65;;;;;;;;;;6189789;23;20079;-93
2022/03/19 00:15:08;;;;;;;18.80;4.70;;;;;;;;;;6165674;23;20012;-92
2022/03/19 00:17:34;;;;;;;18.83;3.88;;;;;;;;;;6189607;23;20449;-92
2022/03/19 00:20:01;;;;;;;22.52;4.55;;;;;;;;;;6164575;23;20012;-92
2022/03/19 00:22:27;;;;;;;23.65;4.28;;;;;;;;;;6188720;23;20016;-92
2022/03/19 00:24:54;;;;;;;18.48;3.85;;;;;;;;;;6165369;23;20019;-92
2022/03/19 00:27:20;;;;;;;25.98;4.50;;;;;;;;;;6169206;23;20016;-91
2022/03/19 00:29:46;;;;;;;16.45;4.45;;;;;;;;;;6191577;23;20095;-91
2022/03/19 00:32:12;;;;;;;24.75;5.32;;;;;;;;;;6190063;23;20027;-92
2022/03/19 00:34:38;;;;;;;17.95;4.20;;;;;;;;;;6189977;23;20412;-91
2022/03/19 00:37:04;;;;;;;22.10;4.70;;;;;;;;;;6165622;23;20444;-91
2022/03/19 00:39:31;;;;;;;29.45;4.78;;;;;;;;;;6189974;23;20013;-90
2022/03/19 00:41:57;;;;;;;17.42;4.25;;;;;;;;;;6166329;23;20051;-91
2022/03/19 00:44:23;;;;;;;26.23;4.85;;;;;;;;;;6191604;23;20012;-91
2022/03/19 00:46:49;;;;;;;26.88;4.70;;;;;;;;;;6191460;23;20453;-91
2022/03/19 00:49:16;;;;;;;20.23;4.78;;;;;;;;;;6191212;23;20108;-91
2022/03/19 00:51:42;;;;;;;23.67;4.43;;;;;;;;;;6167152;23;20012;-93
2022/03/19 00:54:10;;;;;;;24.63;4.60;;;;;;;;;;6191703;23;20016;-92
2022/03/19 00:56:39;;;;;;;19.85;4.25;;;;;;;;;;6167381;23;20024;-92
2022/03/19 00:59:06;;;;;;;25.17;4.45;;;;;;;;;;6191547;23;20099;-91
2022/03/19 01:01:32;;;;;;;21.33;4.85;;;;;;;;;;6167188;23;20016;-92
2022/03/19 01:03:58;;;;;;;23.85;4.70;;;;;;;;;;6172315;23;20008;-91
2022/03/19 01:06:27;;;;;;;22.17;4.10;;;;;;;;;;6166860;23;20019;-91
2022/03/19 01:08:53;;;;;;;22.17;4.75;;;;;;;;;;6166648;23;20488;-92
2022/03/19 01:11:23;;;;;;;22.88;4.57;;;;;;;;;;6190465;23;20038;-92
2022/03/19 01:13:52;;;;;;;20.77;4.55;;;;;;;;;;6167305;23;20020;-91
2022/03/19 01:16:19;;;;;;;26.55;4.25;;;;;;;;;;6191193;23;20070;-92
2022/03/19 01:18:49;;;;;;;20.40;4.45;;;;;;;;;;6191029;23;20019;-94
2022/03/19 01:21:15;;;;;;;17.83;4.35;;;;;;;;;;6191520;23;20016;-92
2022/03/19 01:23:42;;;;;;;28.55;4.65;;;;;;;;;;6191514;23;20065;-91
2022/03/19 01:26:08;;;;;;;18.27;4.47;;;;;;;;;;6191267;23;20019;-91
2022/03/19 01:28:34;;;;;;;18.30;4.60;;;;;;;;;;6190779;23;20057;-93
2022/03/19 01:31:02;;;;;;;19.08;4.80;;;;;;;;;;6191345;23;20012;-92
2022/03/19 01:33:28;;;;;;;18.60;4.35;;;;;;;;;;6191451;23;20074;-91
2022/03/19 01:35:57;;;;;;;18.15;4.55;;;;;;;;;;6167189;23;20020;-91
2022/03/19 01:38:23;;;;;;;23.70;4.60;;;;;;;;;;6171690;23;20016;-91
2022/03/19 01:40:50;;;;;;;14.80;4.25;;;;;;;;;;6191174;23;20110;-90
2022/03/19 01:43:16;;;;;;;22.38;4.70;;;;;;;;;;6191703;23;20012;-92
2022/03/19 01:45:42;;;;;;;25.15;4.75;;;;;;;;;;6166324;23;20349;-92
2022/03/19 01:48:08;;;;;;;21.30;4.75;;;;;;;;;;6191296;23;20018;-91
2022/03/19 01:50:34;;;;;;;22.65;5.00;;;;;;;;;;6190641;23;20016;-91
2022/03/19 01:53:00;;;;;;;17.85;4.70;;;;;;;;;;6190920;23;20048;-89
2022/03/19 01:55:28;;;;;;;18.38;4.22;;;;;;;;;;6191031;23;20012;-91
2022/03/19 01:57:59;;;;;;;21.95;5.03;;;;;;;;;;6190761;23;20016;-91
2022/03/19 02:00:26;;;;;;;19.95;4.78;;;;;;;;;;6190630;23;20020;-92
2022/03/19 02:02:53;;;;;;;22.90;5.05;;;;;;;;;;6191086;23;20008;-91
2022/03/19 02:05:20;;;;;;;19.98;5.20;;;;;;;;;;6190464;23;20058;-91
2022/03/19 02:07:47;;;;;;;21.05;4.32;;;;;;;;;;6190824;23;20012;-92
2022/03/19 02:10:17;;;;;;;24.73;4.57;;;;;;;;;;6191330;23;20457;-93
2022/03/19 02:12:44;;;;;;;19.55;5.68;;;;;;;;;;6191657;23;20008;-93
2022/03/19 02:15:11;;;;;;;26.35;5.70;;;;;;;;;;6196241;23;20015;-91
2022/03/19 02:17:37;;;;;;;25.23;5.68;;;;;;;;;;6191496;23;20019;-90
2022/03/19 02:20:04;;;;;;;24.90;6.03;;;;;;;;;;6166409;23;20008;-92
2022/03/19 02:22:30;;;;;;;23.27;5.60;;;;;;;;;;6191748;23;20020;-91
2022/03/19 02:27:42;;;;;;;22.60;5.43;;;;;;;;;;6215844;23;20512;-92
2022/03/19 02:30:10;;;;;;;24.38;5.18;;;;;;;;;;6191109;23;20022;-91
2022/03/19 02:32:39;;;;;;;23.45;5.25;;;;;;;;;;6191532;23;20047;-93
2022/03/19 02:35:05;;;;;;;17.25;4.47;;;;;;;;;;6191215;23;20027;-92
2022/03/19 02:37:39;;;;;;;22.40;5.25;;;;;;;;;;6165798;23;20676;-92
2022/03/19 02:40:05;;;;;;;14.68;4.43;;;;;;;;;;6190843;23;20016;-92
2022/03/19 02:42:32;;;;;;;22.88;5.30;;;;;;;;;;6165943;23;20062;-91
2022/03/19 02:44:58;;;;;;;24.55;5.00;;;;;;;;;;6191152;23;20035;-91
2022/03/19 02:47:24;;;;;;;23.05;4.95;;;;;;;;;;6191056;23;20012;-92
2022/03/19 02:49:50;;;;;;;26.00;4.60;;;;;;;;;;6172650;23;20016;-91
2022/03/19 02:52:16;;;;;;;19.55;4.65;;;;;;;;;;6167011;23;20042;-92
2022/03/19 02:54:42;;;;;;;17.50;4.63;;;;;;;;;;6190716;23;20048;-92
2022/03/19 02:57:11;;;;;;;22.08;5.20;;;;;;;;;;6190478;23;20078;-91
2022/03/19 02:59:37;;;;;;;24.00;5.43;;;;;;;;;;6171787;23;20034;-93
2022/03/19 03:02:05;;;;;;;22.65;5.00;;;;;;;;;;6169330;23;20453;-92
2022/03/19 03:04:34;;;;;;;21.92;5.93;;;;;;;;;;6193989;23;20019;-91
2022/03/19 03:07:04;;;;;;;22.17;4.93;;;;;;;;;;6194063;23;20012;-91
2022/03/19 03:09:32;;;;;;;22.65;5.20;;;;;;;;;;6193367;23;20023;-92
2022/03/19 03:11:59;;;;;;;20.85;4.75;;;;;;;;;;6192264;23;20453;-92
2022/03/19 03:14:28;;;;;;;19.88;5.28;;;;;;;;;;6192756;23;20012;-92
2022/03/19 03:16:58;;;;;;;19.45;5.68;;;;;;;;;;6191796;23;20016;-92
2022/03/19 03:19:24;;;;;;;20.67;6.07;;;;;;;;;;6168148;23;20449;-91
2022/03/19 03:21:50;;;;;;;19.52;5.45;;;;;;;;;;6191651;23;20099;-92
2022/03/19 03:24:16;;;;;;;22.52;5.25;;;;;;;;;;6168548;23;20012;-92
2022/03/19 03:26:43;;;;;;;15.73;4.85;;;;;;;;;;6196945;23;20115;-91
2022/03/19 03:29:09;;;;;;;17.42;5.55;;;;;;;;;;6167062;23;20019;-91
2022/03/19 03:31:36;;;;;;;20.60;5.40;;;;;;;;;;6190331;23;20058;-92
2022/03/19 03:34:03;;;;;;;23.70;5.43;;;;;;;;;;6191084;23;20012;-92
2022/03/19 03:36:32;;;;;;;23.90;5.90;;;;;;;;;;6191002;23;20023;-92
2022/03/19 03:39:24;;;;;;;20.27;5.95;;;;;;;;;;6183992;23;20028;-91
2022/03/19 03:42:56;;;;;;;;;;;;;;;;;;;;;
2022/03/19 03:45:24;;;;;;;20.83;5.57;;;;;;;;;;6175409;23;20509;-91
2022/03/19 03:47:50;;;;;;;22.63;6.07;;;;;;;;;;6184330;23;20013;-91
2022/03/19 03:50:20;;;;;;;19.05;5.25;;;;;;;;;;6183892;23;20012;-91
2022/03/19 03:52:46;;;;;;;21.45;5.78;;;;;;;;;;6184216;23;20048;-91
2022/03/19 03:55:13;;;;;;;28.48;6.00;;;;;;;;;;6184305;23;20023;-92
2022/03/19 03:57:42;;;;;;;18.92;5.70;;;;;;;;;;6183813;23;20020;-92
2022/03/19 04:00:09;;;;;;;15.63;5.75;;;;;;;;;;6188026;23;20040;-93
2022/03/19 04:02:35;;;;;;;25.10;5.63;;;;;;;;;;6184578;23;20019;-90
2022/03/19 04:05:01;;;;;;;16.65;5.40;;;;;;;;;;6183887;23;20012;-91
2022/03/19 04:07:31;;;;;;;24.13;6.13;;;;;;;;;;6184044;23;20012;-92
2022/03/19 04:09:59;;;;;;;17.40;6.10;;;;;;;;;;6184115;23;20016;-91
2022/03/19 04:12:26;;;;;;;20.10;6.03;;;;;;;;;;6183357;23;20028;-92
2022/03/19 04:14:54;;;;;;;22.73;6.03;;;;;;;;;;6185926;23;20449;-91
2022/03/19 04:17:21;;;;;;;23.20;5.95;;;;;;;;;;6192122;23;20012;-92
2022/03/19 04:19:47;;;;;;;21.80;5.88;;;;;;;;;;6192051;23;20018;-92
2022/03/19 04:22:13;;;;;;;20.52;6.38;;;;;;;;;;6167841;23;20103;-92
2022/03/19 04:24:39;;;;;;;29.80;7.35;;;;;;;;;;6168082;23;20012;-92
2022/03/19 04:27:07;;;;;;;25.80;6.78;;;;;;;;;;6192388;23;20012;-92
2022/03/19 04:29:33;;;;;;;21.83;6.90;;;;;;;;;;6168016;23;20042;-92
2022/03/19 04:32:00;;;;;;;27.60;7.05;;;;;;;;;;6191965;23;20020;-92
2022/03/19 04:34:26;;;;;;;24.38;6.53;;;;;;;;;;6192263;23;20016;-92
2022/03/19 04:36:53;;;;;;;21.63;7.00;;;;;;;;;;6173888;23;20115;-92
2022/03/19 04:39:20;;;;;;;27.98;6.50;;;;;;;;;;6167780;23;20539;-91
2022/03/19 04:41:46;;;;;;;28.63;6.55;;;;;;;;;;6191842;23;20020;-91
2022/03/19 04:44:12;;;;;;;23.30;7.65;;;;;;;;;;6167419;23;20046;-91
2022/03/19 04:46:38;;;;;;;22.27;6.90;;;;;;;;;;6192659;23;20099;-92
2022/03/19 04:49:04;;;;;;;24.80;7.00;;;;;;;;;;6192388;23;20058;-91
2022/03/19 04:51:32;;;;;;;24.25;6.45;;;;;;;;;;6192779;23;20016;-92
2022/03/19 04:53:58;;;;;;;18.02;7.15;;;;;;;;;;6191847;23;20016;-91
2022/03/19 04:56:26;;;;;;;34.03;8.10;;;;;;;;;;6167153;23;20016;-93
2022/03/19 04:58:53;;;;;;;23.88;7.60;;;;;;;;;;6167655;23;20023;-92
2022/03/19 05:01:19;;;;;;;29.83;7.30;;;;;;;;;;6192361;23;20020;-92
2022/03/19 05:03:46;;;;;;;27.08;7.57;;;;;;;;;;6167015;23;20016;-92
2022/03/19 05:06:12;;;;;;;25.85;7.80;;;;;;;;;;6167105;23;20019;-91
2022/03/19 05:08:38;;;;;;;23.30;7.03;;;;;;;;;;6191261;23;20345;-91
2022/03/19 05:11:14;;;;;;;20.35;7.40;;;;;;;;;;6168007;23;20445;-91
2022/03/19 05:13:44;;;;;;;18.05;6.93;;;;;;;;;;6171713;23;20020;-91
2022/03/19 05:16:11;;;;;;;23.20;7.00;;;;;;;;;;6191059;23;20016;-91
2022/03/19 05:18:37;;;;;;;21.92;7.68;;;;;;;;;;6191392;23;20456;-94
2022/03/19 05:21:04;;;;;;;32.40;8.55;;;;;;;;;;6192194;23;20027;-94
2022/03/19 05:23:30;;;;;;;26.30;8.30;;;;;;;;;;6167875;23;20016;-91
2022/03/19 05:25:58;;;;;;;32.42;8.25;;;;;;;;;;6192111;23;20015;-92
2022/03/19 05:28:24;;;;;;;27.13;7.82;;;;;;;;;;6191771;23;20064;-91
2022/03/19 05:30:51;;;;;;;37.67;8.63;;;;;;;;;;6192874;23;20440;-91
2022/03/19 05:33:18;;;;;;;25.05;7.43;;;;;;;;;;6191961;23;20495;-91
2022/03/19 05:35:45;;;;;;;30.95;8.82;;;;;;;;;;6167286;23;20016;-91
2022/03/19 05:38:12;;;;;;;32.53;8.25;;;;;;;;;;6192155;23;20476;-94
2022/03/19 05:40:38;;;;;;;24.08;8.27;;;;;;;;;;6192186;23;20584;-93
2022/03/19 05:43:05;;;;;;;21.13;7.72;;;;;;;;;;6191830;23;20039;-92
2022/03/19 05:45:31;;;;;;;26.42;8.25;;;;;;;;;;6192926;23;20545;-90
2022/03/19 05:47:57;;;;;;;25.88;7.50;;;;;;;;;;6174370;23;20012;-93
2022/03/19 05:50:24;;;;;;;26.02;7.00;;;;;;;;;;6167073;23;20008;-92
2022/03/19 05:52:50;;;;;;;28.85;7.35;;;;;;;;;;6166893;23;20019;-91
2022/03/19 05:55:16;;;;;;;26.38;7.70;;;;;;;;;;6166741;23;20019;-92
2022/03/19 05:57:45;;;;;;;22.35;8.32;;;;;;;;;;6191545;23;20059;-95
2022/03/19 06:00:11;;;;;;;25.08;8.23;;;;;;;;;;6192070;23;20103;-94
2022/03/19 06:02:43;;;;;;;24.77;7.95;;;;;;;;;;6167522;23;20004;-92
2022/03/19 06:05:13;;;;;;;29.05;7.68;;;;;;;;;;6191546;23;20046;-92
2022/03/19 06:07:39;;;;;;;29.67;8.48;;;;;;;;;;6191683;23;20011;-91
2022/03/19 06:10:06;;;;;;;28.80;7.53;;;;;;;;;;6190911;23;20356;-95
2022/03/19 06:12:33;;;;;;;27.42;8.13;;;;;;;;;;6166842;23;20464;-92
2022/03/19 06:14:59;;;;;;;21.75;6.80;;;;;;;;;;6189550;23;20079;-92
2022/03/19 06:17:25;;;;;;;22.38;7.22;;;;;;;;;;6191950;23;20022;-91
2022/03/19 06:19:51;;;;;;;27.10;8.07;;;;;;;;;;6191120;23;20091;-91
2022/03/19 06:22:17;;;;;;;25.63;7.90;;;;;;;;;;6193965;23;20012;-91
2022/03/19 06:24:44;;;;;;;28.05;8.25;;;;;;;;;;6198081;23;20552;-92
2022/03/19 06:27:10;;;;;;;23.27;8.00;;;;;;;;;;6191987;23;20020;-91
2022/03/19 06:29:36;;;;;;;23.08;7.25;;;;;;;;;;6191590;23;20011;-92
2022/03/19 06:32:02;;;;;;;20.95;6.97;;;;;;;;;;6191576;23;20024;-92
2022/03/19 06:34:30;;;;;;;28.67;7.78;;;;;;;;;;6166628;23;20102;-93
2022/03/19 06:39:42;;;;;;;26.55;7.70;;;;;;;;;;6195045;23;20078;-93
2022/03/19 06:42:08;;;;;;;28.08;7.80;;;;;;;;;;6191374;23;20465;-91
2022/03/19 06:44:34;;;;;;;23.80;7.93;;;;;;;;;;6190906;23;20012;-92
2022/03/19 06:47:00;;;;;;;30.63;7.65;;;;;;;;;;6192308;23;20022;-92
2022/03/19 06:49:28;;;;;;;22.50;7.85;;;;;;;;;;6165376;23;20508;-90
2022/03/19 06:51:55;;;;;;;25.55;7.82;;;;;;;;;;6166234;23;20012;-92
2022/03/19 06:54:21;;;;;;;27.60;7.88;;;;;;;;;;6166142;23;20020;-92
2022/03/19 06:56:47;;;;;;;25.92;7.43;;;;;;;;;;6166645;23;20042;-93
2022/03/19 06:59:13;;;;;;;33.20;7.53;;;;;;;;;;6168010;23;20023;-91
2022/03/19 07:01:40;;;;;;;31.10;7.72;;;;;;;;;;6186228;23;20016;-92
2022/03/19 07:04:06;;;;;;;25.70;7.97;;;;;;;;;;6163065;23;20012;-91
2022/03/19 07:06:32;;;;;;;27.58;7.38;;;;;;;;;;6187817;23;20507;-91
2022/03/19 07:08:58;;;;;;;24.55;8.18;;;;;;;;;;6163085;23;20020;-91
2022/03/19 07:11:25;;;;;;;19.35;7.72;;;;;;;;;;6187976;23;20099;-91
2022/03/19 07:13:51;;;;;;;29.40;7.80;;;;;;;;;;6163426;23;20236;-93
2022/03/19 07:16:17;;;;;;;23.30;8.38;;;;;;;;;;6187621;23;20264;-91
2022/03/19 07:18:43;;;;;;;22.08;8.70;;;;;;;;;;6187929;23;20016;-92
2022/03/19 07:21:10;;;;;;;31.13;8.18;;;;;;;;;;6161839;23;20012;-93
2022/03/19 07:23:36;;;;;;;29.70;8.15;;;;;;;;;;6189147;23;20051;-91
2022/03/19 07:26:03;;;;;;;25.70;9.32;;;;;;;;;;6163180;23;20012;-92
2022/03/19 07:28:29;;;;;;;23.35;9.57;;;;;;;;;;6187621;23;20016;-91
2022/03/19 07:30:56;;;;;;;32.33;9.85;;;;;;;;;;6186564;23;20075;-91
2022/03/19 07:33:23;;;;;;;31.13;9.10;;;;;;;;;;6193391;23;20470;-91
2022/03/19 07:35:49;;;;;;;28.13;8.93;;;;;;;;;;6188348;23;20381;-91
2022/03/19 07:38:15;;;;;;;25.90;9.40;;;;;;;;;;6184997;23;20349;-92
2022/03/19 07:43:26;;;;;;;22.23;9.40;;;;;;;;;;6191824;23;20039;-91
2022/03/19 07:45:53;;;;;;;28.45;9.65;;;;;;;;;;6160798;23;20019;-91
2022/03/19 07:48:19;;;;;;;24.85;8.18;;;;;;;;;;6162984;23;20016;-91
2022/03/19 07:50:46;;;;;;;29.25;8.75;;;;;;;;;;6164549;23;20012;-91
2022/03/19 07:53:12;;;;;;;24.40;7.90;;;;;;;;;;6190279;23;20023;-91
2022/03/19 07:55:38;;;;;;;27.35;8.77;;;;;;;;;;6188229;23;20016;-92
2022/03/19 07:58:04;;;;;;;26.15;8.45;;;;;;;;;;6186709;23;20016;-93
2022/03/19 08:00:31;;;;;;;22.55;7.78;;;;;;;;;;6187299;23;20453;-92
2022/03/19 08:02:57;;;;;;;25.63;8.50;;;;;;;;;;6164586;23;20046;-91
2022/03/19 08:05:26;;;;;;;30.42;7.85;;;;;;;;;;6196828;23;20076;-92
2022/03/19 08:07:52;;;;;;;21.92;7.70;;;;;;;;;;6201993;23;20023;-92
2022/03/19 08:10:19;;;;;;;31.55;7.97;;;;;;;;;;6170476;23;20050;-92
2022/03/19 08:12:45;;;;;;;28.50;8.30;;;;;;;;;;6192365;23;20012;-93
2022/03/19 08:15:12;;;;;;;27.00;7.78;;;;;;;;;;6190236;23;20392;-91
2022/03/19 08:17:39;;;;;;;26.30;7.38;;;;;;;;;;6189472;23;20390;-92
2022/03/19 08:20:09;;;;;;;22.02;6.60;;;;;;;;;;6191756;23;20012;-92
2022/03/19 08:22:35;;;;;;;27.25;6.63;;;;;;;;;;6190708;23;20016;-93
2022/03/19 08:25:02;;;;;;;20.23;7.35;;;;;;;;;;6192632;23;20014;-92
2022/03/19 08:27:28;;;;;;;19.58;6.10;;;;;;;;;;6192992;23;20016;-91
2022/03/19 08:29:55;;;;;;;19.38;6.55;;;;;;;;;;6189366;23;20019;-89
2022/03/19 08:32:22;;;;;;;27.35;6.45;;;;;;;;;;6190439;23;20023;-92
2022/03/19 08:34:49;;;;;;;26.50;5.90;;;;;;;;;;6167122;23;20047;-92
2022/03/19 08:37:15;;;;;;;18.85;5.85;;;;;;;;;;6164617;23;20096;-93
2022/03/19 08:42:26;;;;;;;20.27;5.30;;;;;;;;;;6215405;23;20020;-90
2022/03/19 08:44:52;;;;;;;17.58;5.13;;;;;;;;;;6188626;23;20012;-90
2022/03/19 08:47:19;;;;;;;16.98;4.70;;;;;;;;;;6164111;23;20019;-89
2022/03/19 08:49:45;;;;;;;23.15;4.93;;;;;;;;;;6162718;23;20012;-93
2022/03/19 08:52:12;;;;;;;17.73;4.53;;;;;;;;;;6163899;23;20016;-89
2022/03/19 08:54:50;;;;;;;19.27;4.53;;;;;;;;;;6164721;23;20016;-91
2022/03/19 08:57:18;;;;;;;16.58;4.57;;;;;;;;;;6168901;23;20016;-92
2022/03/19 08:59:45;;;;;;;16.88;4.53;;;;;;;;;;6189859;23;20335;-91
2022/03/19 09:02:11;;;;;;;17.52;4.25;;;;;;;;;;6188418;23;20024;-93
2022/03/19 09:04:38;;;;;;;16.17;4.00;;;;;;;;;;6163587;23;20046;-91
2022/03/19 09:07:04;;;;;;;18.13;4.72;;;;;;;;;;6160028;23;20009;-90
2022/03/19 09:09:30;;;;;;;17.48;3.83;;;;;;;;;;6184345;23;20091;-91
2022/03/19 09:11:57;;;;;;;18.40;4.05;;;;;;;;;;6185192;23;20019;-91
2022/03/19 09:14:24;;;;;;;14.40;3.67;;;;;;;;;;6159128;23;20022;-90
2022/03/19 09:16:53;;;;;;;15.15;3.70;;;;;;;;;;6160589;23;20035;-89
2022/03/19 09:19:19;;;;;;;13.10;3.22;;;;;;;;;;6184982;23;20020;-91
2022/03/19 09:21:49;;;;;;;16.58;3.60;;;;;;;;;;6162812;23;20449;-93
2022/03/19 09:24:15;;;;;;;17.50;3.88;;;;;;;;;;6185892;23;20008;-90
2022/03/19 09:26:41;;;;;;;16.98;4.15;;;;;;;;;;6186257;23;20320;-90
2022/03/19 09:29:08;;;;;;;17.05;3.55;;;;;;;;;;6186283;23;20019;-90
2022/03/19 09:31:34;;;;;;;19.27;3.40;;;;;;;;;;6185674;23;20019;-89
2022/03/19 09:34:01;;;;;;;16.40;3.97;;;;;;;;;;6181484;23;20046;-90
2022/03/19 09:36:27;;;;;;;15.45;3.53;;;;;;;;;;6185905;23;20019;-92
2022/03/19 09:38:53;;;;;;;12.35;3.20;;;;;;;;;;6160788;23;20012;-91
2022/03/19 09:41:19;;;;;;;17.83;4.25;;;;;;;;;;6185621;23;20415;-92
2022/03/19 09:43:46;;;;;;;15.45;3.58;;;;;;;;;;6159715;23;20433;-90
2022/03/19 09:46:12;;;;;;;11.23;3.35;;;;;;;;;;6150197;23;20473;-88
2022/03/19 09:48:38;;;;;;;16.20;3.78;;;;;;;;;;6116892;23;20563;-87
2022/03/19 09:51:08;;;;;;;18.92;4.00;;;;;;;;;;6144130;23;20098;-90
2022/03/19 09:53:35;;;;;;;12.90;3.63;;;;;;;;;;6149177;23;20467;-88
2022/03/19 09:56:04;;;;;;;13.82;3.08;;;;;;;;;;6119220;23;20436;-89
2022/03/19 09:58:30;;;;;;;17.20;3.53;;;;;;;;;;6142718;23;20431;-90
2022/03/19 10:01:03;;;;;;;16.85;3.35;;;;;;;;;;6118702;23;20052;-88
2022/03/19 10:03:29;;;;;;;16.42;3.33;;;;;;;;;;6143937;23;20092;-90
2022/03/19 10:08:53;;;;;;;11.68;3.10;;;;;;;;;;6143909;23;20025;-88
2022/03/19 10:11:19;;;;;;;11.52;2.50;;;;;;;;;;6138246;23;20398;-89
2022/03/19 10:13:47;;;;;;;12.15;2.80;;;;;;;;;;6115801;23;20025;-88
2022/03/19 10:16:19;;;;;;;14.60;3.10;;;;;;;;;;6142327;23;20073;-89
2022/03/19 10:18:56;;;;;;;10.95;2.95;;;;;;;;;;6139425;23;20434;-88
2022/03/19 10:21:22;;;;;;;11.23;2.83;;;;;;;;;;6141333;23;20067;-89
2022/03/19 10:23:49;;;;;;;16.20;3.90;;;;;;;;;;6140746;23;20454;-90
2022/03/19 10:26:25;;;;;;;12.00;2.83;;;;;;;;;;6118314;23;20568;-89
2022/03/19 10:28:56;;;;;;;10.65;3.17;;;;;;;;;;6146457;23;20009;-89
2022/03/19 10:31:30;;;;;;;7.40;2.47;;;;;;;;;;6136737;23;20083;-89
2022/03/19 10:33:56;;;;;;;10.10;2.72;;;;;;;;;;6114365;23;20344;-89
2022/03/19 10:36:28;;;;;;;15.40;3.40;;;;;;;;;;6114519;23;20021;-89
2022/03/19 10:38:55;;;;;;;11.20;3.28;;;;;;;;;;6167554;23;20017;-88
2022/03/19 10:41:21;;;;;;;9.65;2.78;;;;;;;;;;6140771;23;20021;-90
2022/03/19 10:43:51;;;;;;;8.93;2.92;;;;;;;;;;6140433;23;20013;-89
2022/03/19 10:46:18;;;;;;;14.38;3.33;;;;;;;;;;6154757;23;20016;-89
2022/03/19 10:48:49;;;;;;;12.02;2.35;;;;;;;;;;6174157;23;20038;-90
2022/03/19 10:51:16;;;;;;;10.27;2.35;;;;;;;;;;6175111;23;20027;-88
2022/03/19 10:53:52;;;;;;;9.18;2.55;;;;;;;;;;6180921;23;20101;-90
2022/03/19 10:56:18;;;;;;;10.20;2.22;;;;;;;;;;6179265;23;20206;-90
2022/03/19 10:58:45;;;;;;;9.10;2.42;;;;;;;;;;6177760;23;20019;-89
2022/03/19 11:01:13;;;;;;;6.65;1.80;;;;;;;;;;6180382;23;20019;-88
2022/03/19 11:03:47;;;;;;;8.45;2.45;;;;;;;;;;6179091;23;20024;-88
2022/03/19 11:06:14;;;;;;;7.07;1.77;;;;;;;;;;6179265;23;20330;-89
2022/03/19 11:08:44;;;;;;;5.95;1.90;;;;;;;;;;6178793;23;20039;-89
2022/03/19 11:11:32;;;;;;;6.28;2.25;;;;;;;;;;6178772;23;20016;-90
2022/03/19 11:13:59;;;;;;;8.55;2.42;;;;;;;;;;6179271;23;20020;-90
2022/03/19 11:16:27;;;;;;;8.20;2.03;;;;;;;;;;6179592;23;20047;-90
2022/03/19 11:18:54;;;;;;;9.40;2.42;;;;;;;;;;6176370;23;20012;-88
2022/03/19 11:21:21;;;;;;;13.00;2.65;;;;;;;;;;6178182;23;20023;-88
2022/03/19 11:23:53;;;;;;;7.40;2.30;;;;;;;;;;6178275;23;20349;-89
2022/03/19 11:26:22;;;;;;;9.95;2.53;;;;;;;;;;6177334;23;20012;-90
2022/03/19 11:28:52;;;;;;;9.25;2.60;;;;;;;;;;6175209;23;20015;-91
2022/03/19 11:31:26;;;;;;;8.35;2.65;;;;;;;;;;6178443;23;20460;-87
2022/03/19 11:33:56;;;;;;;9.48;2.28;;;;;;;;;;6178638;23;20016;-88
2022/03/19 11:36:22;;;;;;;6.28;1.90;;;;;;;;;;6177755;23;20356;-87
2022/03/19 11:38:53;;;;;;;8.80;2.50;;;;;;;;;;6180633;23;20074;-87
2022/03/19 11:41:26;;;;;;;6.38;2.10;;;;;;;;;;6180095;23;20099;-89
2022/03/19 11:44:12;;;;;;;7.22;2.00;;;;;;;;;;6177180;23;20294;-89
2022/03/19 11:46:57;;;;;;;7.25;2.00;;;;;;;;;;6178255;22;20081;-88
2022/03/19 11:49:41;;;;;;;6.38;1.67;;;;;;;;;;6180892;23;20012;-91
2022/03/19 11:52:08;;;;;;;4.88;1.70;;;;;;;;;;6181773;23;20016;-87
2022/03/19 11:54:54;;;;;;;11.73;1.58;;;;;;;;;;6179331;23;20023;-89
2022/03/19 11:57:26;;;;;;;8.25;2.10;;;;;;;;;;6177507;23;20074;-88
2022/03/19 11:59:57;;;;;;;6.32;2.15;;;;;;;;;;6180048;23;20015;-89
2022/03/19 12:02:26;;;;;;;5.43;1.92;;;;;;;;;;6181209;23;20020;-88
2022/03/19 12:04:57;;;;;;;7.03;1.75;;;;;;;;;;6182743;23;20012;-86
2022/03/19 12:07:40;;;;;;;5.07;1.80;;;;;;;;;;6178518;23;20016;-86
2022/03/19 12:10:16;;;;;;;6.10;1.75;;;;;;;;;;6179809;23;20012;-86
2022/03/19 12:12:43;;;;;;;6.13;1.80;;;;;;;;;;6179380;23;20012;-87
2022/03/19 12:15:44;;;;;;;4.80;1.63;;;;;;;;;;6180130;23;20023;-89
2022/03/19 12:18:53;;;;;;;20.25;2.90;;;;;;;;;;6089077;23;20137;-87
2022/03/19 12:21:21;;;;;;;8.00;1.85;;;;;;;;;;6088155;23;20269;-87
2022/03/19 12:23:57;;;;;;;7.07;1.63;;;;;;;;;;6143508;23;20008;-87
2022/03/19 12:26:24;;;;;;;5.53;1.30;;;;;;;;;;6176569;23;20012;-86
2022/03/19 12:29:03;;;;;;;6.40;1.60;;;;;;;;;;6178743;23;20023;-86
2022/03/19 12:31:31;;;;;;;4.65;1.55;;;;;;;;;;6179124;23;20303;-87
2022/03/19 12:33:57;;;;;;;6.22;1.55;;;;;;;;;;6178830;23;20459;-87
2022/03/19 12:36:24;;;;;;;4.72;1.50;;;;;;;;;;6179765;23;20020;-85
2022/03/19 12:38:52;;;;;;;5.97;1.70;;;;;;;;;;6187204;23;20015;-87
2022/03/19 12:41:26;;;;;;;7.93;1.83;;;;;;;;;;6184449;23;20012;-89
2022/03/19 12:43:53;;;;;;;5.72;1.63;;;;;;;;;;6181943;23;20457;-89
2022/03/19 12:46:26;;;;;;;5.72;1.55;;;;;;;;;;6180725;23;20020;-87
2022/03/19 12:49:01;;;;;;;6.25;2.00;;;;;;;;;;6180342;23;20008;-85
2022/03/19 12:51:28;;;;;;;7.28;2.25;;;;;;;;;;6185989;23;20093;-86
2022/03/19 12:53:54;;;;;;;4.65;1.80;;;;;;;;;;6181244;23;20016;-86
2022/03/19 12:56:21;;;;;;;4.53;1.77;;;;;;;;;;6181453;23;20102;-86
2022/03/19 12:58:52;;;;;;;7.40;1.95;;;;;;;;;;6184187;23;20023;-90
2022/03/19 13:01:19;;;;;;;8.10;1.42;;;;;;;;;;6184954;23;20042;-85
2022/03/19 13:03:45;;;;;;;5.00;1.35;;;;;;;;;;6184603;23;20091;-86
2022/03/19 13:06:14;;;;;;;6.38;1.98;;;;;;;;;;6182870;23;20412;-85
2022/03/19 13:08:47;;;;;;;9.75;2.35;;;;;;;;;;6185824;23;20027;-86
2022/03/19 13:11:13;;;;;;;6.97;1.67;;;;;;;;;;6190434;23;20043;-88
2022/03/19 13:13:43;;;;;;;6.20;1.88;;;;;;;;;;6184203;23;20382;-86
2022/03/19 13:16:10;;;;;;;6.35;1.67;;;;;;;;;;6185292;23;20404;-87
2022/03/19 13:18:37;;;;;;;7.47;1.67;;;;;;;;;;6186259;23;20453;-87
2022/03/19 13:21:08;;;;;;;6.05;1.60;;;;;;;;;;6186712;23;20016;-87
2022/03/19 13:23:35;;;;;;;6.97;2.08;;;;;;;;;;6186450;23;20016;-87
2022/03/19 13:26:04;;;;;;;5.60;1.85;;;;;;;;;;6211428;23;20064;-87
2022/03/19 13:28:31;;;;;;;3.70;1.45;;;;;;;;;;6186005;23;20067;-89
2022/03/19 13:30:57;;;;;;;6.78;1.60;;;;;;;;;;6186708;23;20467;-88
2022/03/19 13:33:24;;;;;;;6.40;1.85;;;;;;;;;;6185078;23;20016;-89
2022/03/19 13:35:54;;;;;;;9.85;2.03;;;;;;;;;;6187636;23;20070;-88
2022/03/19 13:38:21;;;;;;;4.18;1.30;;;;;;;;;;6184325;23;20024;-86
2022/03/19 13:40:50;;;;;;;7.60;1.60;;;;;;;;;;6186094;23;20020;-86
2022/03/19 13:43:35;;;;;;;4.68;1.70;;;;;;;;;;6186328;23;20102;-89
2022/03/19 13:46:17;;;;;;;6.15;1.70;;;;;;;;;;6186903;23;20027;-88
2022/03/19 13:48:44;;;;;;;4.97;1.67;;;;;;;;;;6184282;23;20027;-87
2022/03/19 13:51:11;;;;;;;6.95;1.77;;;;;;;;;;6185496;23;20062;-88
2022/03/19 13:53:44;;;;;;;7.97;2.13;;;;;;;;;;6183053;23;20012;-87
2022/03/19 13:56:11;;;;;;;5.93;1.70;;;;;;;;;;6182385;23;20392;-88
2022/03/19 13:58:37;;;;;;;7.05;1.75;;;;;;;;;;6180848;23;20019;-88
2022/03/19 14:01:11;;;;;;;4.97;1.85;;;;;;;;;;6183603;23;20016;-87
2022/03/19 14:03:40;;;;;;;7.25;1.85;;;;;;;;;;6183567;23;20014;-86
2022/03/19 14:06:10;;;;;;;5.07;1.50;;;;;;;;;;6207842;23;20352;-87
2022/03/19 14:08:39;;;;;;;3.90;1.58;;;;;;;;;;6182879;23;20009;-88
2022/03/19 14:11:13;;;;;;;7.63;1.60;;;;;;;;;;6207863;23;20091;-87
2022/03/19 14:13:45;;;;;;;4.15;1.30;;;;;;;;;;6183103;23;20051;-87
2022/03/19 14:16:15;;;;;;;7.13;1.92;;;;;;;;;;6185792;23;20016;-87
2022/03/19 14:18:44;;;;;;;8.77;1.63;;;;;;;;;;6188612;23;20073;-89
2022/03/19 14:21:16;;;;;;;4.50;1.40;;;;;;;;;;6181930;23;20085;-89
2022/03/19 14:23:50;;;;;;;6.82;1.73;;;;;;;;;;6210722;23;20016;-89
2022/03/19 14:26:16;;;;;;;6.20;1.88;;;;;;;;;;6185310;23;20030;-87
2022/03/19 14:28:52;;;;;;;5.35;1.80;;;;;;;;;;6183877;23;20095;-88
2022/03/19 14:31:19;;;;;;;5.30;1.60;;;;;;;;;;6182406;23;20016;-88
2022/03/19 14:33:54;;;;;;;6.43;1.65;;;;;;;;;;6208391;23;20059;-87
2022/03/19 14:36:21;;;;;;;3.20;1.33;;;;;;;;;;6183149;23;20031;-86
2022/03/19 14:38:49;;;;;;;8.63;2.10;;;;;;;;;;6182744;23;20012;-87
2022/03/19 14:41:16;;;;;;;5.25;1.75;;;;;;;;;;6181723;23;20020;-87
2022/03/19 14:43:45;;;;;;;6.97;2.03;;;;;;;;;;6204490;23;20016;-87
2022/03/19 14:46:12;;;;;;;6.15;1.77;;;;;;;;;;6182483;23;20083;-88
2022/03/19 14:48:43;;;;;;;5.95;1.38;;;;;;;;;;6183291;23;20015;-88
2022/03/19 14:51:26;;;;;;;7.90;1.70;;;;;;;;;;6185896;23;20020;-86
2022/03/19 14:53:54;;;;;;;4.35;1.55;;;;;;;;;;6182048;23;20012;-88